createdAt,value
2019-03-29T00:02:12.493Z,6.80
2019-03-29T00:04:41.640Z,6.60
2019-03-29T00:07:10.720Z,7.90
2019-03-29T00:09:39.713Z,7.90
2019-03-29T00:12:08.676Z,6.67
2019-03-29T00:14:37.785Z,6.70
2019-03-29T00:17:06.825Z,7.07
2019-03-29T00:19:35.824Z,7.80
2019-03-29T00:22:05.120Z,7.73
2019-03-29T00:24:34.357Z,8.80
2019-03-29T00:27:03.402Z,7.37
2019-03-29T00:29:32.408Z,7.60
2019-03-29T00:32:01.404Z,8.37
2019-03-29T00:34:30.402Z,9.33
2019-03-29T00:36:59.532Z,10.23
2019-03-29T00:39:28.588Z,8.37
2019-03-29T00:41:57.644Z,9.13
2019-03-29T00:44:26.975Z,9.00
2019-03-29T00:46:56.248Z,6.97
2019-03-29T00:49:25.309Z,9.47
2019-03-29T00:51:54.300Z,7.93
2019-03-29T00:54:23.406Z,8.47
2019-03-29T00:56:52.405Z,9.13
2019-03-29T00:59:21.487Z,10.30
2019-03-29T01:01:50.568Z,7.13
2019-03-29T01:04:19.496Z,8.00
2019-03-29T01:06:48.471Z,9.23
2019-03-29T01:09:17.493Z,7.47
2019-03-29T01:11:48.507Z,8.20
2019-03-29T01:14:17.524Z,10.30
2019-03-29T01:16:46.520Z,11.10
2019-03-29T01:19:15.522Z,9.67
2019-03-29T01:21:44.498Z,9.90
2019-03-29T01:24:13.604Z,10.33
2019-03-29T01:26:42.709Z,11.90
2019-03-29T01:29:11.720Z,12.37
2019-03-29T01:31:40.949Z,11.90
2019-03-29T01:34:10.294Z,13.63
2019-03-29T01:36:39.387Z,13.33
2019-03-29T01:39:08.470Z,12.13
2019-03-29T01:41:37.509Z,12.40
2019-03-29T01:44:06.490Z,11.13
2019-03-29T01:46:35.512Z,12.37
2019-03-29T01:49:04.495Z,12.50
2019-03-29T01:51:33.522Z,12.33
2019-03-29T01:54:04.090Z,14.10
2019-03-29T01:56:33.357Z,13.37
2019-03-29T01:59:02.343Z,14.30
2019-03-29T02:01:31.354Z,14.00
2019-03-29T02:04:00.332Z,16.53
2019-03-29T02:06:29.345Z,14.10
2019-03-29T02:09:03.202Z,15.47
2019-03-29T02:11:32.204Z,17.23
2019-03-29T02:14:01.254Z,16.33
2019-03-29T02:16:30.274Z,16.23
2019-03-29T02:18:59.326Z,15.90
2019-03-29T02:21:29.969Z,17.13
2019-03-29T02:23:58.980Z,17.00
2019-03-29T02:26:27.978Z,18.80
2019-03-29T02:28:57.004Z,18.23
2019-03-29T02:31:27.793Z,17.03
2019-03-29T02:33:56.804Z,16.80
2019-03-29T02:36:25.885Z,18.63
2019-03-29T02:38:56.334Z,19.50
2019-03-29T02:41:25.689Z,21.73
2019-03-29T02:43:54.683Z,23.87
2019-03-29T02:46:25.632Z,20.30
2019-03-29T02:48:54.444Z,22.50
2019-03-29T02:51:23.491Z,23.83
2019-03-29T02:53:52.477Z,21.33
2019-03-29T02:56:21.491Z,23.17
2019-03-29T02:58:50.478Z,22.77
2019-03-29T03:01:19.534Z,23.83
2019-03-29T03:03:48.547Z,24.17
2019-03-29T03:06:17.546Z,24.00
2019-03-29T03:08:46.568Z,23.23
2019-03-29T03:11:15.680Z,29.80
2019-03-29T03:13:44.778Z,24.17
2019-03-29T03:16:13.868Z,29.70
2019-03-29T03:18:42.937Z,24.57
2019-03-29T03:21:11.981Z,26.77
2019-03-29T03:23:41.045Z,29.43
2019-03-29T03:26:10.044Z,27.13
2019-03-29T03:28:39.003Z,29.40
2019-03-29T03:31:08.029Z,31.23
2019-03-29T03:33:37.094Z,28.97
2019-03-29T03:36:06.228Z,28.97
2019-03-29T03:38:35.418Z,26.43
2019-03-29T03:41:04.383Z,26.83
2019-03-29T03:43:33.398Z,32.10
2019-03-29T03:46:02.439Z,30.40
2019-03-29T03:48:31.531Z,28.33
2019-03-29T03:51:00.567Z,30.37
2019-03-29T03:53:29.935Z,29.90
2019-03-29T03:55:59.678Z,34.30
2019-03-29T03:58:29.494Z,29.30
2019-03-29T04:00:58.931Z,33.00
2019-03-29T04:03:28.005Z,30.03
2019-03-29T04:05:57.041Z,29.40
2019-03-29T04:08:26.326Z,32.97
2019-03-29T04:10:55.391Z,33.63
2019-03-29T04:13:24.488Z,34.13
2019-03-29T04:15:53.549Z,35.17
2019-03-29T04:18:22.609Z,32.00
2019-03-29T04:20:51.695Z,31.93
2019-03-29T04:23:20.685Z,34.50
2019-03-29T04:25:49.775Z,36.77
2019-03-29T04:28:18.874Z,37.90
2019-03-29T04:30:47.880Z,38.17
2019-03-29T04:33:16.876Z,35.20
2019-03-29T04:35:45.893Z,37.43
2019-03-29T04:38:15.004Z,36.20
2019-03-29T04:40:44.133Z,36.37
2019-03-29T04:43:13.192Z,38.93
2019-03-29T04:45:42.232Z,37.03
2019-03-29T04:48:11.258Z,37.90
2019-03-29T04:50:40.311Z,37.17
2019-03-29T04:53:09.304Z,36.70
2019-03-29T04:55:38.373Z,37.87
2019-03-29T04:58:07.428Z,42.70
2019-03-29T05:00:36.474Z,42.27
2019-03-29T05:03:05.487Z,43.30
2019-03-29T05:05:34.597Z,40.20
2019-03-29T05:08:03.606Z,38.33
2019-03-29T05:10:32.642Z,42.63
2019-03-29T05:13:01.701Z,36.47
2019-03-29T05:15:30.718Z,37.53
2019-03-29T05:17:59.781Z,40.07
2019-03-29T05:20:28.871Z,37.57
2019-03-29T05:22:57.851Z,40.70
2019-03-29T05:25:26.864Z,34.67
2019-03-29T05:27:55.838Z,35.03
2019-03-29T05:30:24.874Z,35.47
2019-03-29T05:32:53.839Z,32.47
2019-03-29T05:35:23.013Z,31.23
2019-03-29T05:37:52.046Z,31.67
2019-03-29T05:40:33.999Z,31.80
2019-03-29T05:42:51.876Z,29.67
2019-03-29T05:45:20.936Z,28.77
2019-03-29T05:47:49.956Z,28.00
2019-03-29T05:50:19.038Z,27.80
2019-03-29T05:52:48.139Z,26.43
2019-03-29T05:55:17.137Z,28.60
2019-03-29T05:57:46.229Z,26.93
2019-03-29T06:00:17.859Z,26.80
2019-03-29T06:02:46.935Z,27.60
2019-03-29T06:05:15.933Z,27.90
2019-03-29T06:07:45.078Z,23.87
2019-03-29T06:10:14.122Z,26.93
2019-03-29T06:12:43.192Z,23.97
2019-03-29T06:15:12.345Z,26.53
2019-03-29T06:17:48.385Z,23.43
2019-03-29T06:20:12.413Z,23.63
2019-03-29T06:22:41.445Z,19.47
2019-03-29T06:25:10.439Z,19.73
2019-03-29T06:27:39.548Z,16.73
2019-03-29T06:30:08.719Z,15.17
2019-03-29T06:32:37.804Z,16.50
2019-03-29T06:35:07.050Z,17.03
2019-03-29T06:37:36.750Z,13.87
2019-03-29T06:40:06.644Z,15.00
2019-03-29T06:42:35.732Z,13.40
2019-03-29T06:45:05.741Z,14.37
2019-03-29T06:47:34.847Z,13.77
2019-03-29T06:50:04.103Z,12.20
2019-03-29T06:52:33.170Z,12.00
2019-03-29T06:55:02.289Z,14.00
2019-03-29T06:57:31.430Z,14.37
2019-03-29T07:00:00.516Z,13.13
2019-03-29T07:02:29.646Z,14.47
2019-03-29T07:04:58.730Z,14.43
2019-03-29T07:07:27.887Z,13.17
2019-03-29T07:09:57.008Z,12.87
2019-03-29T07:12:26.084Z,12.73
2019-03-29T07:14:55.147Z,12.13
2019-03-29T07:17:24.158Z,16.20
2019-03-29T07:19:53.259Z,12.80
2019-03-29T07:22:22.276Z,15.10
2019-03-29T07:24:51.389Z,13.20
2019-03-29T07:27:20.460Z,16.77
2019-03-29T07:29:49.465Z,13.67
2019-03-29T07:32:18.515Z,14.40
2019-03-29T07:34:49.158Z,16.07
2019-03-29T07:37:18.315Z,15.13
2019-03-29T07:39:47.388Z,14.20
2019-03-29T07:42:16.487Z,13.10
2019-03-29T07:44:45.562Z,12.57
2019-03-29T07:47:14.660Z,13.00
2019-03-29T07:49:43.780Z,13.63
2019-03-29T07:52:12.830Z,14.80
2019-03-29T07:54:44.724Z,14.17
2019-03-29T07:57:13.731Z,14.37
2019-03-29T07:59:42.804Z,13.40
2019-03-29T08:02:11.863Z,14.57
2019-03-29T08:04:40.902Z,13.17
2019-03-29T08:07:09.910Z,14.37
2019-03-29T08:09:38.989Z,14.00
2019-03-29T08:12:08.098Z,13.07
2019-03-29T08:14:37.081Z,13.97
2019-03-29T08:17:06.118Z,13.27
2019-03-29T08:19:37.184Z,14.03
2019-03-29T08:22:05.852Z,13.60
2019-03-29T08:24:34.849Z,12.87
2019-03-29T08:27:03.861Z,15.07
2019-03-29T08:29:33.101Z,14.27
2019-03-29T08:32:02.139Z,13.93
2019-03-29T08:34:31.161Z,14.23
2019-03-29T08:37:00.222Z,15.13
2019-03-29T08:39:29.333Z,16.13
2019-03-29T08:42:00.411Z,15.17
2019-03-29T08:44:29.204Z,14.47
2019-03-29T08:46:58.254Z,14.20
2019-03-29T08:49:27.259Z,15.20
2019-03-29T08:51:56.361Z,14.53
2019-03-29T08:54:25.520Z,15.07
2019-03-29T08:56:54.534Z,15.30
2019-03-29T08:59:23.529Z,15.67
2019-03-29T09:01:52.687Z,16.83
2019-03-29T09:04:21.898Z,18.97
2019-03-29T09:06:53.772Z,15.13
2019-03-29T09:09:21.691Z,15.23
2019-03-29T09:11:50.828Z,15.97
2019-03-29T09:14:19.895Z,17.13
2019-03-29T09:16:48.931Z,15.67
2019-03-29T09:19:18.021Z,14.27
2019-03-29T09:21:47.062Z,14.43
2019-03-29T09:24:34.920Z,13.10
2019-03-29T09:27:03.996Z,16.17
2019-03-29T09:29:33.203Z,13.53
2019-03-29T09:32:02.233Z,15.53
2019-03-29T09:34:31.294Z,14.17
2019-03-29T09:37:00.412Z,13.43
2019-03-29T09:39:29.477Z,11.00
2019-03-29T09:41:58.515Z,14.57
2019-03-29T09:44:27.561Z,13.40
2019-03-29T09:46:56.666Z,18.97
2019-03-29T09:49:25.832Z,14.20
2019-03-29T09:51:54.815Z,13.80
2019-03-29T09:54:23.886Z,13.70
2019-03-29T09:56:53.008Z,14.50
2019-03-29T09:59:24.414Z,17.97
2019-03-29T10:01:54.194Z,14.00
2019-03-29T10:04:23.483Z,13.43
2019-03-29T10:06:52.495Z,12.67
2019-03-29T10:09:21.541Z,11.97
2019-03-29T10:11:50.556Z,11.00
2019-03-29T10:14:19.668Z,12.30
2019-03-29T10:16:48.689Z,31.83
2019-03-29T10:19:17.731Z,9.20
2019-03-29T10:21:46.710Z,8.70
2019-03-29T10:24:15.794Z,9.77
2019-03-29T10:26:44.805Z,9.97
2019-03-29T10:29:13.836Z,8.53
2019-03-29T10:31:42.868Z,9.67
2019-03-29T10:34:12.661Z,10.03
2019-03-29T10:36:41.765Z,13.07
2019-03-29T10:39:12.125Z,9.83
2019-03-29T10:41:41.326Z,11.00
2019-03-29T10:44:10.413Z,8.97
2019-03-29T10:46:39.400Z,9.50
2019-03-29T10:49:08.467Z,9.50
2019-03-29T10:51:37.521Z,10.67
2019-03-29T10:54:06.598Z,9.07
2019-03-29T10:56:35.573Z,10.13
2019-03-29T10:59:04.555Z,10.07
2019-03-29T11:01:33.787Z,11.33
2019-03-29T11:04:02.889Z,8.77
2019-03-29T11:06:31.916Z,9.03
2019-03-29T11:09:00.901Z,10.10
2019-03-29T11:11:31.271Z,9.17
2019-03-29T11:14:00.353Z,9.97
2019-03-29T11:16:29.329Z,10.57
2019-03-29T11:18:58.412Z,10.07
2019-03-29T11:21:27.489Z,9.03
2019-03-29T11:23:58.144Z,8.60
2019-03-29T11:26:27.164Z,9.30
2019-03-29T11:28:56.262Z,10.13
2019-03-29T11:31:25.777Z,10.57
2019-03-29T11:33:55.388Z,10.93
2019-03-29T11:36:24.437Z,11.13
2019-03-29T11:38:53.539Z,13.33
2019-03-29T11:41:22.608Z,11.67
2019-03-29T11:43:51.627Z,11.87
2019-03-29T11:46:20.708Z,13.33
2019-03-29T11:48:49.814Z,10.27
2019-03-29T11:51:20.059Z,11.43
2019-03-29T11:53:51.045Z,12.10
2019-03-29T11:56:20.185Z,10.30
2019-03-29T11:58:49.252Z,10.60
2019-03-29T12:01:18.331Z,10.13
2019-03-29T12:03:47.352Z,11.00
2019-03-29T12:06:16.442Z,11.30
2019-03-29T12:08:45.465Z,10.13
2019-03-29T12:11:14.577Z,10.40
2019-03-29T12:13:43.604Z,11.10
2019-03-29T12:16:12.602Z,10.63
2019-03-29T12:18:41.684Z,10.87
2019-03-29T12:21:10.672Z,11.70
2019-03-29T12:23:39.700Z,10.17
2019-03-29T12:26:08.780Z,11.43
2019-03-29T12:28:37.915Z,10.50
2019-03-29T12:31:07.508Z,9.53
2019-03-29T12:33:36.541Z,11.87
2019-03-29T12:36:05.693Z,10.57
2019-03-29T12:38:34.810Z,11.73
2019-03-29T12:41:03.911Z,12.60
2019-03-29T12:43:32.917Z,13.03
2019-03-29T12:46:02.179Z,11.83
2019-03-29T12:48:31.265Z,9.77
2019-03-29T12:51:00.296Z,13.43
2019-03-29T12:53:29.335Z,10.87
2019-03-29T12:55:58.415Z,11.67
2019-03-29T12:58:27.541Z,10.57
2019-03-29T13:00:56.644Z,11.50
2019-03-29T13:03:25.702Z,13.53
2019-03-29T13:05:54.712Z,11.57
2019-03-29T13:08:23.785Z,14.07
2019-03-29T13:10:52.767Z,11.17
2019-03-29T13:13:21.751Z,12.53
2019-03-29T13:15:50.834Z,13.97
2019-03-29T13:18:19.920Z,15.03
2019-03-29T13:20:48.988Z,14.10
2019-03-29T13:23:18.068Z,11.77
2019-03-29T13:25:47.090Z,11.67
2019-03-29T13:28:16.233Z,11.43
2019-03-29T13:30:45.231Z,11.90
2019-03-29T13:33:14.220Z,11.97
2019-03-29T13:35:44.595Z,13.17
2019-03-29T13:38:13.852Z,12.60
2019-03-29T13:40:42.907Z,10.97
2019-03-29T13:43:11.910Z,10.97
2019-03-29T13:45:41.006Z,11.90
2019-03-29T13:48:10.008Z,12.77
2019-03-29T13:50:39.074Z,13.10
2019-03-29T13:53:08.194Z,12.67
2019-03-29T13:55:56.046Z,14.37
2019-03-29T13:58:25.108Z,14.47
2019-03-29T14:00:54.164Z,13.20
2019-03-29T14:03:23.293Z,12.07
2019-03-29T14:05:52.349Z,13.73
2019-03-29T14:08:21.416Z,10.07
2019-03-29T14:10:50.609Z,11.50
2019-03-29T14:13:19.912Z,12.03
2019-03-29T14:15:49.007Z,11.00
2019-03-29T14:18:18.068Z,10.90
2019-03-29T14:20:47.129Z,12.90
2019-03-29T14:23:16.123Z,11.87
2019-03-29T14:25:45.168Z,11.77
2019-03-29T14:28:14.168Z,13.43
2019-03-29T14:30:43.204Z,13.50
2019-03-29T14:33:12.255Z,12.93
2019-03-29T14:35:41.352Z,11.87
2019-03-29T14:38:10.318Z,12.13
2019-03-29T14:40:39.302Z,10.63
2019-03-29T14:43:08.362Z,12.43
2019-03-29T14:45:37.408Z,12.60
2019-03-29T14:48:06.452Z,10.17
2019-03-29T14:50:35.467Z,12.60
2019-03-29T14:53:04.547Z,12.43
2019-03-29T14:55:33.583Z,13.90
2019-03-29T14:58:02.665Z,13.13
2019-03-29T15:00:36.499Z,12.30
2019-03-29T15:03:05.892Z,21.77
2019-03-29T15:05:34.881Z,13.20
2019-03-29T15:08:03.901Z,12.13
2019-03-29T15:10:32.909Z,12.30
2019-03-29T15:13:01.991Z,14.27
2019-03-29T15:15:31.081Z,12.93
2019-03-29T15:18:00.154Z,14.30
2019-03-29T15:20:29.206Z,12.37
2019-03-29T15:22:58.267Z,12.50
2019-03-29T15:25:27.292Z,13.03
2019-03-29T15:27:56.404Z,11.33
2019-03-29T15:30:25.426Z,14.97
2019-03-29T15:32:54.480Z,13.90
2019-03-29T15:35:23.575Z,14.20
2019-03-29T15:37:52.544Z,12.53
2019-03-29T15:40:21.666Z,12.27
2019-03-29T15:42:50.775Z,13.37
2019-03-29T15:45:21.118Z,14.60
2019-03-29T15:47:50.380Z,14.00
2019-03-29T15:50:19.432Z,14.13
2019-03-29T15:52:48.424Z,12.73
2019-03-29T15:55:17.530Z,11.83
2019-03-29T15:57:46.620Z,17.40
2019-03-29T16:00:15.804Z,16.47
2019-03-29T16:02:44.824Z,16.33
2019-03-29T16:05:13.875Z,12.87
2019-03-29T16:07:42.946Z,15.73
2019-03-29T16:10:12.020Z,13.63
2019-03-29T16:12:41.117Z,13.23
2019-03-29T16:15:10.350Z,14.77
2019-03-29T16:17:39.398Z,13.40
2019-03-29T16:20:08.438Z,15.40
2019-03-29T16:22:37.537Z,13.17
2019-03-29T16:25:06.660Z,13.27
2019-03-29T16:27:35.674Z,13.40
2019-03-29T16:30:05.549Z,15.17
2019-03-29T16:32:34.630Z,15.63
2019-03-29T16:35:03.740Z,13.77
2019-03-29T16:37:32.837Z,13.13
2019-03-29T16:40:01.887Z,12.90
2019-03-29T16:42:31.003Z,12.97
2019-03-29T16:44:59.994Z,15.57
2019-03-29T16:47:29.006Z,12.07
2019-03-29T16:49:58.046Z,13.97
2019-03-29T16:52:27.108Z,15.33
2019-03-29T16:54:56.178Z,14.07
2019-03-29T16:57:25.300Z,11.27
2019-03-29T16:59:54.329Z,15.03
2019-03-29T17:02:23.365Z,11.87
2019-03-29T17:04:52.473Z,14.43
2019-03-29T17:07:21.512Z,13.70
2019-03-29T17:09:50.637Z,13.57
2019-03-29T17:12:19.686Z,14.27
2019-03-29T17:14:48.777Z,13.77
2019-03-29T17:17:17.835Z,12.20
2019-03-29T17:19:46.823Z,11.70
2019-03-29T17:22:15.896Z,14.13
2019-03-29T17:24:56.446Z,15.07
2019-03-29T17:27:15.817Z,13.20
2019-03-29T17:29:44.867Z,14.37
2019-03-29T17:32:13.895Z,14.10
2019-03-29T17:34:43.462Z,15.23
2019-03-29T17:37:12.630Z,16.90
2019-03-29T17:39:41.827Z,13.10
2019-03-29T17:42:10.920Z,15.30
2019-03-29T17:44:40.009Z,16.87
2019-03-29T17:47:10.005Z,15.30
2019-03-29T17:49:39.046Z,16.20
2019-03-29T17:52:08.051Z,13.33
2019-03-29T17:54:37.179Z,15.27
2019-03-29T17:57:06.298Z,14.93
2019-03-29T17:59:35.346Z,16.60
2019-03-29T18:02:09.522Z,14.93
2019-03-29T18:04:35.193Z,17.57
2019-03-29T18:07:04.307Z,20.83
2019-03-29T18:09:33.455Z,18.73
2019-03-29T18:12:02.605Z,18.90
